sensor_id;sensor_type;location;lat;lon;timestamp;pressure;altitude;pressure_sealevel;temperature;humidity
25498;BME280;13406;53.380;7.226;2024-02-28T00:01:28;101098.97;;;2.62;100.00
25498;BME280;13406;53.380;7.226;2024-02-28T00:03:53;101063.03;;;2.31;100.00
25498;BME280;13406;53.380;7.226;2024-02-28T00:06:19;101091.59;;;2.27;100.00
25498;BME280;13406;53.380;7.226;2024-02-28T00:08:45;101091.19;;;2.41;100.00
25498;BME280;13406;53.380;7.226;2024-02-28T00:11:11;101058.16;;;2.55;100.00
25498;BME280;13406;53.380;7.226;2024-02-28T00:13:39;100936.03;;;1.82;100.00
25498;BME280;13406;53.380;7.226;2024-02-28T00:16:04;101022.47;;;2.59;100.00
25498;BME280;13406;53.380;7.226;2024-02-28T00:18:30;100924.34;;;1.85;100.00
25498;BME280;13406;53.380;7.226;2024-02-28T00:20:56;100957.63;;;1.97;100.00
25498;BME280;13406;53.380;7.226;2024-02-28T00:23:22;101006.03;;;2.56;100.00
25498;BME280;13406;53.380;7.226;2024-02-28T00:25:47;100883.41;;;1.98;100.00
25498;BME280;13406;53.380;7.226;2024-02-28T00:28:12;100878.09;;;1.98;100.00
25498;BME280;13406;53.380;7.226;2024-02-28T00:30:39;100897.06;;;1.74;100.00
25498;BME280;13406;53.380;7.226;2024-02-28T00:33:08;100994.59;;;2.45;100.00
25498;BME280;13406;53.380;7.226;2024-02-28T00:35:33;100938.22;;;2.25;100.00
25498;BME280;13406;53.380;7.226;2024-02-28T00:37:59;100952.31;;;2.73;100.00
25498;BME280;13406;53.380;7.226;2024-02-28T00:40:25;100855.44;;;1.86;100.00
25498;BME280;13406;53.380;7.226;2024-02-28T00:42:51;100823.41;;;1.89;100.00
25498;BME280;13406;53.380;7.226;2024-02-28T00:45:16;100948.06;;;2.53;100.00
25498;BME280;13406;53.380;7.226;2024-02-28T00:47:44;100925.34;;;2.87;100.00
25498;BME280;13406;53.380;7.226;2024-02-28T00:50:10;100909.47;;;2.50;100.00
25498;BME280;13406;53.380;7.226;2024-02-28T00:52:37;100950.09;;;2.68;100.00
25498;BME280;13406;53.380;7.226;2024-02-28T00:55:02;100854.47;;;1.77;100.00
25498;BME280;13406;53.380;7.226;2024-02-28T00:57:30;100813.44;;;1.64;100.00
25498;BME280;13406;53.380;7.226;2024-02-28T00:59:55;100833.91;;;1.71;100.00
25498;BME280;13406;53.380;7.226;2024-02-28T01:02:23;100772.22;;;2.18;100.00
25498;BME280;13406;53.380;7.226;2024-02-28T01:04:49;100692.63;;;2.01;100.00
25498;BME280;13406;53.380;7.226;2024-02-28T01:07:14;100741.31;;;2.46;100.00
25498;BME280;13406;53.380;7.226;2024-02-28T01:09:40;100622.72;;;2.04;100.00
25498;BME280;13406;53.380;7.226;2024-02-28T01:12:05;100673.75;;;2.60;100.00
25498;BME280;13406;53.380;7.226;2024-02-28T01:14:31;100540.69;;;1.86;100.00
25498;BME280;13406;53.380;7.226;2024-02-28T01:16:56;100506.22;;;1.78;100.00
25498;BME280;13406;53.380;7.226;2024-02-28T01:19:24;100559.31;;;2.30;100.00
25498;BME280;13406;53.380;7.226;2024-02-28T01:21:50;100524.09;;;2.12;100.00
25498;BME280;13406;53.380;7.226;2024-02-28T01:24:15;100488.41;;;1.80;100.00
25498;BME280;13406;53.380;7.226;2024-02-28T01:26:40;100465.06;;;1.75;100.00
25498;BME280;13406;53.380;7.226;2024-02-28T01:29:06;100550.84;;;2.09;100.00
25498;BME280;13406;53.380;7.226;2024-02-28T01:31:32;100568.91;;;2.49;100.00
25498;BME280;13406;53.380;7.226;2024-02-28T01:33:57;100569.34;;;2.44;100.00
25498;BME280;13406;53.380;7.226;2024-02-28T01:36:23;100550.53;;;2.30;100.00
25498;BME280;13406;53.380;7.226;2024-02-28T01:38:48;100495.44;;;2.07;100.00
25498;BME280;13406;53.380;7.226;2024-02-28T01:41:14;100597.34;;;2.47;100.00
25498;BME280;13406;53.380;7.226;2024-02-28T01:43:40;100505.50;;;2.03;100.00
25498;BME280;13406;53.380;7.226;2024-02-28T01:46:19;100606.19;;;2.56;100.00
25498;BME280;13406;53.380;7.226;2024-02-28T01:48:46;100508.75;;;1.79;100.00
25498;BME280;13406;53.380;7.226;2024-02-28T01:51:12;100616.38;;;2.68;100.00
25498;BME280;13406;53.380;7.226;2024-02-28T01:53:38;100579.66;;;2.47;100.00
25498;BME280;13406;53.380;7.226;2024-02-28T01:56:04;100592.94;;;2.74;100.00
25498;BME280;13406;53.380;7.226;2024-02-28T01:58:30;100601.94;;;2.63;100.00
25498;BME280;13406;53.380;7.226;2024-02-28T02:00:56;100558.56;;;2.20;100.00
25498;BME280;13406;53.380;7.226;2024-02-28T02:03:21;100601.44;;;2.41;100.00
25498;BME280;13406;53.380;7.226;2024-02-28T02:05:47;100554.34;;;1.81;100.00
25498;BME280;13406;53.380;7.226;2024-02-28T02:08:13;100687.59;;;2.71;100.00
25498;BME280;13406;53.380;7.226;2024-02-28T02:10:39;100569.38;;;2.09;100.00
25498;BME280;13406;53.380;7.226;2024-02-28T02:13:07;100621.09;;;1.93;100.00
25498;BME280;13406;53.380;7.226;2024-02-28T02:15:33;100735.88;;;2.65;100.00
25498;BME280;13406;53.380;7.226;2024-02-28T02:17:58;100728.53;;;2.59;100.00
25498;BME280;13406;53.380;7.226;2024-02-28T02:20:26;100656.19;;;1.95;100.00
25498;BME280;13406;53.380;7.226;2024-02-28T02:22:53;100795.22;;;2.72;100.00
25498;BME280;13406;53.380;7.226;2024-02-28T02:25:18;100718.69;;;1.96;100.00
25498;BME280;13406;53.380;7.226;2024-02-28T02:27:43;100855.53;;;2.79;100.00
25498;BME280;13406;53.380;7.226;2024-02-28T02:30:09;100755.59;;;1.98;100.00
25498;BME280;13406;53.380;7.226;2024-02-28T02:32:35;100896.94;;;2.80;100.00
25498;BME280;13406;53.380;7.226;2024-02-28T02:35:00;100761.72;;;1.98;100.00
25498;BME280;13406;53.380;7.226;2024-02-28T02:37:25;100881.53;;;2.93;100.00
25498;BME280;13406;53.380;7.226;2024-02-28T02:39:53;100763.63;;;2.06;100.00
25498;BME280;13406;53.380;7.226;2024-02-28T02:42:19;100900.56;;;2.79;100.00
25498;BME280;13406;53.380;7.226;2024-02-28T02:44:44;101020.84;;;2.86;100.00
25498;BME280;13406;53.380;7.226;2024-02-28T02:47:10;101029.78;;;2.85;100.00
25498;BME280;13406;53.380;7.226;2024-02-28T02:49:35;101052.06;;;2.92;100.00
25498;BME280;13406;53.380;7.226;2024-02-28T02:52:00;101069.94;;;2.90;100.00
25498;BME280;13406;53.380;7.226;2024-02-28T02:54:26;101070.09;;;2.79;100.00
25498;BME280;13406;53.380;7.226;2024-02-28T02:56:53;101024.31;;;2.49;100.00
25498;BME280;13406;53.380;7.226;2024-02-28T02:59:19;100999.25;;;2.14;100.00
25498;BME280;13406;53.380;7.226;2024-02-28T03:01:47;101010.53;;;2.26;100.00
25498;BME280;13406;53.380;7.226;2024-02-28T03:04:12;101106.88;;;2.91;100.00
25498;BME280;13406;53.380;7.226;2024-02-28T03:06:40;101109.97;;;2.87;100.00
25498;BME280;13406;53.380;7.226;2024-02-28T03:09:05;101113.88;;;2.83;100.00
25498;BME280;13406;53.380;7.226;2024-02-28T03:11:32;101108.28;;;2.86;100.00
25498;BME280;13406;53.380;7.226;2024-02-28T03:14:00;101131.19;;;2.87;100.00
25498;BME280;13406;53.380;7.226;2024-02-28T03:16:25;101145.13;;;2.79;100.00
25498;BME280;13406;53.380;7.226;2024-02-28T03:18:50;101183.59;;;2.83;100.00
25498;BME280;13406;53.380;7.226;2024-02-28T03:21:16;101195.16;;;2.92;100.00
25498;BME280;13406;53.380;7.226;2024-02-28T03:23:42;101209.09;;;2.94;100.00
25498;BME280;13406;53.380;7.226;2024-02-28T03:26:07;101216.66;;;2.99;100.00
25498;BME280;13406;53.380;7.226;2024-02-28T03:28:35;101210.53;;;2.98;100.00
25498;BME280;13406;53.380;7.226;2024-02-28T03:31:01;101227.09;;;3.00;100.00
25498;BME280;13406;53.380;7.226;2024-02-28T03:33:27;101221.09;;;3.08;100.00
25498;BME280;13406;53.380;7.226;2024-02-28T03:35:52;101214.69;;;3.10;100.00
25498;BME280;13406;53.380;7.226;2024-02-28T03:38:17;101203.25;;;3.00;100.00
25498;BME280;13406;53.380;7.226;2024-02-28T03:40:42;101210.91;;;3.13;100.00
25498;BME280;13406;53.380;7.226;2024-02-28T03:43:08;101195.00;;;3.03;100.00
25498;BME280;13406;53.380;7.226;2024-02-28T03:45:36;101196.00;;;3.02;100.00
25498;BME280;13406;53.380;7.226;2024-02-28T03:48:01;101194.03;;;2.94;100.00
25498;BME280;13406;53.380;7.226;2024-02-28T03:50:27;101188.75;;;3.04;100.00
25498;BME280;13406;53.380;7.226;2024-02-28T03:52:52;101195.44;;;3.08;100.00
25498;BME280;13406;53.380;7.226;2024-02-28T03:55:20;101189.03;;;3.01;100.00
25498;BME280;13406;53.380;7.226;2024-02-28T03:57:48;101188.47;;;2.88;100.00
25498;BME280;13406;53.380;7.226;2024-02-28T04:00:15;101068.75;;;2.36;100.00
25498;BME280;13406;53.380;7.226;2024-02-28T04:02:40;101120.03;;;2.54;100.00
25498;BME280;13406;53.380;7.226;2024-02-28T04:05:06;101087.28;;;2.26;100.00
25498;BME280;13406;53.380;7.226;2024-02-28T04:07:34;101136.63;;;2.56;100.00
25498;BME280;13406;53.380;7.226;2024-02-28T04:09:59;101212.31;;;3.17;100.00
25498;BME280;13406;53.380;7.226;2024-02-28T04:12:25;101171.59;;;2.79;100.00
25498;BME280;13406;53.380;7.226;2024-02-28T04:14:50;101084.38;;;2.29;100.00
25498;BME280;13406;53.380;7.226;2024-02-28T04:19:51;100926.22;;;3.06;100.00
25498;BME280;13406;53.380;7.226;2024-02-28T04:22:17;100949.88;;;3.17;100.00
25498;BME280;13406;53.380;7.226;2024-02-28T04:24:42;100949.00;;;2.99;100.00
25498;BME280;13406;53.380;7.226;2024-02-28T04:27:07;100847.34;;;2.44;100.00
25498;BME280;13406;53.380;7.226;2024-02-28T04:29:35;100970.78;;;3.20;100.00
25498;BME280;13406;53.380;7.226;2024-02-28T04:32:00;100978.91;;;3.19;100.00
25498;BME280;13406;53.380;7.226;2024-02-28T04:34:26;100984.94;;;3.11;100.00
25498;BME280;13406;53.380;7.226;2024-02-28T04:36:51;100918.38;;;2.86;100.00
25498;BME280;13406;53.380;7.226;2024-02-28T04:39:17;100960.88;;;2.94;100.00
25498;BME280;13406;53.380;7.226;2024-02-28T04:41:42;100969.56;;;2.77;100.00
25498;BME280;13406;53.380;7.226;2024-02-28T04:44:07;100967.38;;;2.72;100.00
25498;BME280;13406;53.380;7.226;2024-02-28T04:46:34;100964.03;;;2.70;100.00
25498;BME280;13406;53.380;7.226;2024-02-28T04:49:00;100996.06;;;2.77;100.00
25498;BME280;13406;53.380;7.226;2024-02-28T04:51:25;101034.69;;;2.89;100.00
25498;BME280;13406;53.380;7.226;2024-02-28T04:53:50;100926.94;;;2.14;100.00
25498;BME280;13406;53.380;7.226;2024-02-28T04:56:16;101008.94;;;2.62;100.00
25498;BME280;13406;53.380;7.226;2024-02-28T04:58:41;101050.16;;;2.75;100.00
25498;BME280;13406;53.380;7.226;2024-02-28T05:01:07;101056.72;;;2.80;100.00
25498;BME280;13406;53.380;7.226;2024-02-28T05:03:33;101105.19;;;3.00;100.00
25498;BME280;13406;53.380;7.226;2024-02-28T05:05:58;101116.09;;;3.07;100.00
25498;BME280;13406;53.380;7.226;2024-02-28T05:08:25;101112.97;;;3.21;100.00
25498;BME280;13406;53.380;7.226;2024-02-28T05:10:52;101129.59;;;3.04;100.00
25498;BME280;13406;53.380;7.226;2024-02-28T05:13:18;101047.84;;;2.33;100.00
25498;BME280;13406;53.380;7.226;2024-02-28T05:15:43;101098.69;;;2.85;100.00
25498;BME280;13406;53.380;7.226;2024-02-28T05:18:09;101144.16;;;2.70;100.00
25498;BME280;13406;53.380;7.226;2024-02-28T05:20:34;101146.66;;;2.53;100.00
25498;BME280;13406;53.380;7.226;2024-02-28T05:23:00;101212.19;;;2.70;100.00
25498;BME280;13406;53.380;7.226;2024-02-28T05:25:25;101253.19;;;2.85;100.00
25498;BME280;13406;53.380;7.226;2024-02-28T05:27:51;101255.13;;;3.03;100.00
25498;BME280;13406;53.380;7.226;2024-02-28T05:30:16;101274.38;;;3.14;100.00
25498;BME280;13406;53.380;7.226;2024-02-28T05:32:41;101236.28;;;2.86;100.00
25498;BME280;13406;53.380;7.226;2024-02-28T05:35:07;101281.91;;;3.00;100.00
25498;BME280;13406;53.380;7.226;2024-02-28T05:37:32;101260.44;;;3.03;100.00
25498;BME280;13406;53.380;7.226;2024-02-28T05:39:58;101231.97;;;2.76;100.00
25498;BME280;13406;53.380;7.226;2024-02-28T05:42:23;101122.53;;;2.26;100.00
25498;BME280;13406;53.380;7.226;2024-02-28T05:44:49;101253.88;;;3.16;100.00
25498;BME280;13406;53.380;7.226;2024-02-28T05:47:15;101168.13;;;2.79;100.00
25498;BME280;13406;53.380;7.226;2024-02-28T05:49:41;101172.31;;;2.62;100.00
25498;BME280;13406;53.380;7.226;2024-02-28T05:52:06;101092.31;;;2.29;100.00
25498;BME280;13406;53.380;7.226;2024-02-28T05:54:32;101124.22;;;2.47;100.00
25498;BME280;13406;53.380;7.226;2024-02-28T05:56:59;101191.13;;;2.88;100.00
25498;BME280;13406;53.380;7.226;2024-02-28T05:59:25;101237.00;;;3.08;100.00
25498;BME280;13406;53.380;7.226;2024-02-28T06:01:51;101226.13;;;3.11;100.00
25498;BME280;13406;53.380;7.226;2024-02-28T06:04:17;101176.59;;;2.92;100.00
25498;BME280;13406;53.380;7.226;2024-02-28T06:06:42;101185.53;;;3.10;100.00
25498;BME280;13406;53.380;7.226;2024-02-28T06:09:08;101114.03;;;2.71;100.00
25498;BME280;13406;53.380;7.226;2024-02-28T06:11:34;101157.91;;;3.13;100.00
25498;BME280;13406;53.380;7.226;2024-02-28T06:13:59;101071.69;;;2.52;100.00
25498;BME280;13406;53.380;7.226;2024-02-28T06:16:25;101153.56;;;3.12;100.00
25498;BME280;13406;53.380;7.226;2024-02-28T06:18:50;101033.50;;;2.45;100.00
25498;BME280;13406;53.380;7.226;2024-02-28T06:21:16;101118.97;;;3.13;100.00
25498;BME280;13406;53.380;7.226;2024-02-28T06:23:41;101110.13;;;3.32;100.00
25498;BME280;13406;53.380;7.226;2024-02-28T06:26:07;101025.66;;;2.72;100.00
25498;BME280;13406;53.380;7.226;2024-02-28T06:28:40;100989.16;;;2.57;100.00
25498;BME280;13406;53.380;7.226;2024-02-28T06:31:12;101098.56;;;3.24;100.00
25498;BME280;13406;53.380;7.226;2024-02-28T06:33:37;101075.75;;;3.03;100.00
25498;BME280;13406;53.380;7.226;2024-02-28T06:36:03;101082.66;;;3.24;100.00
25498;BME280;13406;53.380;7.226;2024-02-28T06:38:29;101031.16;;;2.89;100.00
25498;BME280;13406;53.380;7.226;2024-02-28T06:40:54;100979.44;;;2.47;100.00
25498;BME280;13406;53.380;7.226;2024-02-28T06:43:19;101060.47;;;2.87;100.00
25498;BME280;13406;53.380;7.226;2024-02-28T06:45:45;100976.69;;;2.20;100.00
25498;BME280;13406;53.380;7.226;2024-02-28T06:48:10;101079.13;;;2.96;100.00
25498;BME280;13406;53.380;7.226;2024-02-28T06:50:36;101046.41;;;2.87;100.00
25498;BME280;13406;53.380;7.226;2024-02-28T06:53:01;100972.19;;;2.40;100.00
25498;BME280;13406;53.380;7.226;2024-02-28T06:55:27;101123.00;;;3.27;100.00
25498;BME280;13406;53.380;7.226;2024-02-28T06:57:52;101101.53;;;3.11;100.00
25498;BME280;13406;53.380;7.226;2024-02-28T07:00:18;100996.00;;;2.40;100.00
25498;BME280;13406;53.380;7.226;2024-02-28T07:02:44;101058.09;;;2.84;100.00
25498;BME280;13406;53.380;7.226;2024-02-28T07:05:10;101114.81;;;3.11;100.00
25498;BME280;13406;53.380;7.226;2024-02-28T07:07:35;101114.69;;;3.03;100.00
25498;BME280;13406;53.380;7.226;2024-02-28T07:10:03;101120.38;;;3.08;100.00
25498;BME280;13406;53.380;7.226;2024-02-28T07:12:29;100981.28;;;2.18;100.00
25498;BME280;13406;53.380;7.226;2024-02-28T07:14:55;101048.53;;;2.44;100.00
25498;BME280;13406;53.380;7.226;2024-02-28T07:17:20;100981.56;;;2.24;100.00
25498;BME280;13406;53.380;7.226;2024-02-28T07:19:46;101143.78;;;3.22;100.00
25498;BME280;13406;53.380;7.226;2024-02-28T07:22:11;101125.53;;;3.09;100.00
25498;BME280;13406;53.380;7.226;2024-02-28T07:24:37;101049.78;;;2.60;100.00
25498;BME280;13406;53.380;7.226;2024-02-28T07:27:03;101124.28;;;3.04;100.00
25498;BME280;13406;53.380;7.226;2024-02-28T07:29:28;101131.69;;;3.10;100.00
25498;BME280;13406;53.380;7.226;2024-02-28T07:31:53;101009.81;;;2.34;100.00
25498;BME280;13406;53.380;7.226;2024-02-28T07:34:21;101040.88;;;2.61;100.00
25498;BME280;13406;53.380;7.226;2024-02-28T07:36:47;101177.56;;;3.30;100.00
25498;BME280;13406;53.380;7.226;2024-02-28T07:39:12;101131.78;;;3.18;100.00
25498;BME280;13406;53.380;7.226;2024-02-28T07:41:41;101147.69;;;3.18;100.00
25498;BME280;13406;53.380;7.226;2024-02-28T07:44:09;101138.94;;;3.08;100.00
25498;BME280;13406;53.380;7.226;2024-02-28T07:46:36;101079.16;;;2.76;100.00
25498;BME280;13406;53.380;7.226;2024-02-28T07:49:01;101095.44;;;3.01;100.00
25498;BME280;13406;53.380;7.226;2024-02-28T07:51:27;101143.78;;;3.22;100.00
25498;BME280;13406;53.380;7.226;2024-02-28T07:53:53;101169.16;;;3.34;100.00
25498;BME280;13406;53.380;7.226;2024-02-28T07:56:21;101174.19;;;3.28;100.00
25498;BME280;13406;53.380;7.226;2024-02-28T07:58:47;101166.09;;;3.29;100.00
25498;BME280;13406;53.380;7.226;2024-02-28T08:01:13;101169.44;;;3.31;100.00
25498;BME280;13406;53.380;7.226;2024-02-28T08:03:38;101178.63;;;3.37;100.00
25498;BME280;13406;53.380;7.226;2024-02-28T08:06:04;101177.81;;;3.36;100.00
25498;BME280;13406;53.380;7.226;2024-02-28T08:08:29;101124.13;;;3.15;100.00
25498;BME280;13406;53.380;7.226;2024-02-28T08:10:55;101054.66;;;2.64;100.00
25498;BME280;13406;53.380;7.226;2024-02-28T08:13:21;101129.03;;;3.10;100.00
25498;BME280;13406;53.380;7.226;2024-02-28T08:15:46;101169.41;;;3.51;100.00
25498;BME280;13406;53.380;7.226;2024-02-28T08:18:12;101099.59;;;3.13;100.00
25498;BME280;13406;53.380;7.226;2024-02-28T08:20:38;101177.06;;;3.54;100.00
25498;BME280;13406;53.380;7.226;2024-02-28T08:23:06;101178.91;;;3.44;100.00
25498;BME280;13406;53.380;7.226;2024-02-28T08:25:32;101127.06;;;3.12;100.00
25498;BME280;13406;53.380;7.226;2024-02-28T08:27:57;101109.53;;;2.91;100.00
25498;BME280;13406;53.380;7.226;2024-02-28T08:30:23;101166.94;;;3.30;100.00
25498;BME280;13406;53.380;7.226;2024-02-28T08:32:49;101203.22;;;3.29;100.00
25498;BME280;13406;53.380;7.226;2024-02-28T08:35:14;101250.06;;;3.58;100.00
25498;BME280;13406;53.380;7.226;2024-02-28T08:37:40;101132.00;;;2.78;100.00
25498;BME280;13406;53.380;7.226;2024-02-28T08:40:06;101253.69;;;3.57;100.00
25498;BME280;13406;53.380;7.226;2024-02-28T08:42:32;101270.69;;;3.64;100.00
25498;BME280;13406;53.380;7.226;2024-02-28T08:44:57;101244.78;;;3.48;100.00
25498;BME280;13406;53.380;7.226;2024-02-28T08:47:25;101268.34;;;3.61;100.00
25498;BME280;13406;53.380;7.226;2024-02-28T08:49:54;101305.84;;;3.85;100.00
25498;BME280;13406;53.380;7.226;2024-02-28T08:52:21;101273.63;;;3.61;100.00
25498;BME280;13406;53.380;7.226;2024-02-28T08:54:47;101305.03;;;3.85;100.00
25498;BME280;13406;53.380;7.226;2024-02-28T08:57:13;101291.75;;;3.75;100.00
25498;BME280;13406;53.380;7.226;2024-02-28T08:59:38;101210.19;;;3.30;100.00
25498;BME280;13406;53.380;7.226;2024-02-28T09:02:05;101284.28;;;3.98;100.00
25498;BME280;13406;53.380;7.226;2024-02-28T09:04:31;101222.16;;;3.54;100.00
25498;BME280;13406;53.380;7.226;2024-02-28T09:06:57;101258.91;;;3.86;100.00
25498;BME280;13406;53.380;7.226;2024-02-28T09:09:24;101272.13;;;4.05;100.00
25498;BME280;13406;53.380;7.226;2024-02-28T09:11:50;101271.69;;;4.10;100.00
25498;BME280;13406;53.380;7.226;2024-02-28T09:14:18;101272.47;;;4.20;100.00
25498;BME280;13406;53.380;7.226;2024-02-28T09:16:44;101254.53;;;4.32;100.00
25498;BME280;13406;53.380;7.226;2024-02-28T09:19:09;101249.41;;;4.21;100.00
25498;BME280;13406;53.380;7.226;2024-02-28T09:21:34;101235.78;;;4.34;100.00
25498;BME280;13406;53.380;7.226;2024-02-28T09:24:00;101236.53;;;4.26;100.00
25498;BME280;13406;53.380;7.226;2024-02-28T09:26:26;101226.22;;;4.23;100.00
25498;BME280;13406;53.380;7.226;2024-02-28T09:28:52;101248.94;;;4.35;100.00
25498;BME280;13406;53.380;7.226;2024-02-28T09:31:17;101144.00;;;3.76;100.00
25498;BME280;13406;53.380;7.226;2024-02-28T09:33:43;101270.28;;;4.43;100.00
25498;BME280;13406;53.380;7.226;2024-02-28T09:36:12;101271.81;;;4.46;100.00
25498;BME280;13406;53.380;7.226;2024-02-28T09:38:37;101180.69;;;4.18;100.00
25498;BME280;13406;53.380;7.226;2024-02-28T09:41:03;101213.81;;;4.41;100.00
25498;BME280;13406;53.380;7.226;2024-02-28T09:43:29;101188.38;;;4.39;100.00
25498;BME280;13406;53.380;7.226;2024-02-28T09:46:05;101187.84;;;4.53;100.00
25498;BME280;13406;53.380;7.226;2024-02-28T09:48:32;101186.50;;;4.85;100.00
25498;BME280;13406;53.380;7.226;2024-02-28T09:50:59;101144.50;;;4.70;100.00
25498;BME280;13406;53.380;7.226;2024-02-28T09:53:25;101113.94;;;4.48;100.00
25498;BME280;13406;53.380;7.226;2024-02-28T09:55:51;101080.56;;;4.46;100.00
25498;BME280;13406;53.380;7.226;2024-02-28T09:58:18;101077.91;;;4.46;100.00
25498;BME280;13406;53.380;7.226;2024-02-28T10:00:44;101102.69;;;4.72;100.00
25498;BME280;13406;53.380;7.226;2024-02-28T10:03:17;101094.25;;;4.59;100.00
25498;BME280;13406;53.380;7.226;2024-02-28T10:05:44;101132.19;;;4.87;100.00
25498;BME280;13406;53.380;7.226;2024-02-28T10:08:11;101142.13;;;4.85;100.00
25498;BME280;13406;53.380;7.226;2024-02-28T10:10:37;101050.50;;;4.27;100.00
25498;BME280;13406;53.380;7.226;2024-02-28T10:13:05;101119.31;;;4.74;100.00
25498;BME280;13406;53.380;7.226;2024-02-28T10:15:31;101142.97;;;4.86;100.00
25498;BME280;13406;53.380;7.226;2024-02-28T10:17:56;101068.84;;;4.39;100.00
25498;BME280;13406;53.380;7.226;2024-02-28T10:20:22;101077.34;;;4.24;100.00
25498;BME280;13406;53.380;7.226;2024-02-28T10:22:47;101088.81;;;4.61;100.00
25498;BME280;13406;53.380;7.226;2024-02-28T10:25:13;101130.44;;;4.96;100.00
25498;BME280;13406;53.380;7.226;2024-02-28T10:27:39;101130.81;;;5.01;100.00
25498;BME280;13406;53.380;7.226;2024-02-28T10:30:05;101125.88;;;4.88;100.00
25498;BME280;13406;53.380;7.226;2024-02-28T10:32:31;101107.31;;;4.70;100.00
25498;BME280;13406;53.380;7.226;2024-02-28T10:34:59;101143.63;;;5.06;100.00
25498;BME280;13406;53.380;7.226;2024-02-28T10:37:28;101154.00;;;5.17;100.00
25498;BME280;13406;53.380;7.226;2024-02-28T10:39:56;101145.50;;;5.13;100.00
25498;BME280;13406;53.380;7.226;2024-02-28T10:42:22;101142.47;;;5.08;100.00
25498;BME280;13406;53.380;7.226;2024-02-28T10:44:52;101135.66;;;5.06;100.00
25498;BME280;13406;53.380;7.226;2024-02-28T10:47:19;101122.47;;;4.96;100.00
25498;BME280;13406;53.380;7.226;2024-02-28T10:49:44;101089.34;;;4.90;100.00
25498;BME280;13406;53.380;7.226;2024-02-28T10:52:11;101144.13;;;5.27;100.00
25498;BME280;13406;53.380;7.226;2024-02-28T10:54:39;101130.06;;;5.17;100.00
25498;BME280;13406;53.380;7.226;2024-02-28T10:57:12;101158.13;;;5.37;100.00
25498;BME280;13406;53.380;7.226;2024-02-28T10:59:40;101147.16;;;5.40;100.00
25498;BME280;13406;53.380;7.226;2024-02-28T11:02:09;101140.38;;;5.46;100.00
25498;BME280;13406;53.380;7.226;2024-02-28T11:04:34;101125.56;;;5.43;100.00
25498;BME280;13406;53.380;7.226;2024-02-28T11:07:00;101057.56;;;5.07;100.00
25498;BME280;13406;53.380;7.226;2024-02-28T11:09:28;100957.91;;;5.19;100.00
25498;BME280;13406;53.380;7.226;2024-02-28T11:11:56;101004.53;;;5.39;100.00
25498;BME280;13406;53.380;7.226;2024-02-28T11:14:22;100984.31;;;5.71;100.00
25498;BME280;13406;53.380;7.226;2024-02-28T11:17:05;100956.69;;;5.72;100.00
25498;BME280;13406;53.380;7.226;2024-02-28T11:19:32;100869.69;;;5.48;100.00
25498;BME280;13406;53.380;7.226;2024-02-28T11:21:59;100892.50;;;5.92;100.00
25498;BME280;13406;53.380;7.226;2024-02-28T11:24:29;100829.31;;;5.94;100.00
25498;BME280;13406;53.380;7.226;2024-02-28T11:26:56;100825.50;;;5.96;100.00
25498;BME280;13406;53.380;7.226;2024-02-28T11:29:26;100781.84;;;5.89;100.00
25498;BME280;13406;53.380;7.226;2024-02-28T11:31:52;100779.38;;;5.87;100.00
25498;BME280;13406;53.380;7.226;2024-02-28T11:34:19;100771.88;;;5.91;100.00
25498;BME280;13406;53.380;7.226;2024-02-28T11:36:49;100765.41;;;5.94;100.00
25498;BME280;13406;53.380;7.226;2024-02-28T11:39:16;100773.53;;;6.00;100.00
25498;BME280;13406;53.380;7.226;2024-02-28T11:41:45;100731.16;;;5.66;100.00
25498;BME280;13406;53.380;7.226;2024-02-28T11:44:12;100759.91;;;5.95;100.00
25498;BME280;13406;53.380;7.226;2024-02-28T11:46:42;100741.25;;;5.87;100.00
25498;BME280;13406;53.380;7.226;2024-02-28T11:49:08;100765.41;;;6.02;100.00
25498;BME280;13406;53.380;7.226;2024-02-28T11:51:33;100748.44;;;5.95;100.00
25498;BME280;13406;53.380;7.226;2024-02-28T11:54:01;100736.28;;;5.84;100.00
25498;BME280;13406;53.380;7.226;2024-02-28T11:56:27;100739.25;;;5.89;100.00
25498;BME280;13406;53.380;7.226;2024-02-28T11:58:53;100773.53;;;6.08;100.00
25498;BME280;13406;53.380;7.226;2024-02-28T12:01:20;100776.34;;;6.07;100.00
25498;BME280;13406;53.380;7.226;2024-02-28T12:03:56;100798.78;;;6.29;100.00
25498;BME280;13406;53.380;7.226;2024-02-28T12:06:23;100806.56;;;6.30;100.00
25498;BME280;13406;53.380;7.226;2024-02-28T12:08:48;100713.56;;;5.65;100.00
25498;BME280;13406;53.380;7.226;2024-02-28T12:11:14;100808.50;;;6.05;100.00
25498;BME280;13406;53.380;7.226;2024-02-28T12:13:39;100816.50;;;5.97;100.00
25498;BME280;13406;53.380;7.226;2024-02-28T12:16:05;100828.94;;;5.88;100.00
25498;BME280;13406;53.380;7.226;2024-02-28T12:18:30;100887.84;;;6.10;100.00
25498;BME280;13406;53.380;7.226;2024-02-28T12:20:56;100876.72;;;5.98;100.00
25498;BME280;13406;53.380;7.226;2024-02-28T12:23:22;100730.19;;;4.93;100.00
25498;BME280;13406;53.380;7.226;2024-02-28T12:25:47;100828.13;;;5.72;100.00
25498;BME280;13406;53.380;7.226;2024-02-28T12:28:13;100860.44;;;5.93;100.00
25498;BME280;13406;53.380;7.226;2024-02-28T12:30:42;100873.03;;;6.16;100.00
25498;BME280;13406;53.380;7.226;2024-02-28T12:33:08;100824.63;;;5.87;100.00
25498;BME280;13406;53.380;7.226;2024-02-28T12:35:34;100825.63;;;6.03;100.00
25498;BME280;13406;53.380;7.226;2024-02-28T12:38:00;100774.22;;;5.86;100.00
25498;BME280;13406;53.380;7.226;2024-02-28T12:40:25;100837.03;;;6.36;100.00
25498;BME280;13406;53.380;7.226;2024-02-28T12:42:51;100811.94;;;6.22;100.00
25498;BME280;13406;53.380;7.226;2024-02-28T12:45:16;100782.47;;;6.16;100.00
25498;BME280;13406;53.380;7.226;2024-02-28T12:47:42;100738.72;;;6.10;100.00